Inverness Airport


Codes: EGPE/INV
Name: Inverness Airport
City: Inverness
Country: United Kingdom
Elevation: 31 ft.
Website:
Wikipedia:

Photos at Inverness Airport


   Photos courtesy of SpottingLog. You can add your own sightings and photos by signing up for a free trial today.



G-GNTF, 24-Jul-2019
© Ron Rothammer

G-SAJN, 24-Jul-2019
© Ron Rothammer

G-LGNF, 24-Jul-2019
© Ron Rothammer

XD875, 07-Jul-2005
© Kev Slade

XV867, 07-Jul-2005
© Kev Slade

XN607, 07-Jul-2005
© Kev Slade

XM169, 07-Jul-2005
© Kev Slade

XK532, 07-Jul-2005
© Kev Slade

G-ASVO, 07-Jul-2005
© Kev Slade

ZA362, 07-Jul-2005
© Kev Slade

G-MIDS, 07-Jul-2005
© Kev Slade

N767FL, 07-Jul-2005
© Kev Slade


Weather at Inverness Airport


Time (UTC)DescriptionTempratureWindCloud coverageVisibilityPressureHumidity
16-Jun-2024 00:00Moderate Rain11°C4 mph, NW100%7194m997hPa97%
16-Jun-2024 03:00Moderate Rain11°C13 mph, N100%4292m996hPa96%
16-Jun-2024 06:00Moderate Rain11°C16 mph, N100%3711m995hPa96%
16-Jun-2024 09:00Moderate Rain11°C13 mph, NE100%8989m996hPa96%
16-Jun-2024 12:00Light Rain12°C11 mph, N100%10000m998hPa95%
16-Jun-2024 15:00Light Rain13°C13 mph, NE98%10000m999hPa88%
16-Jun-2024 18:00Light Rain12°C9 mph, NE94%10000m1001hPa87%
16-Jun-2024 21:00Light Rain11°C4 mph, NE81%10000m1003hPa95%
17-Jun-2024 00:00Light Rain11°C4 mph, NW90%10000m1004hPa94%
17-Jun-2024 03:00Light Rain10°C4 mph, W100%10000m1005hPa95%
17-Jun-2024 06:00Light Rain11°C4 mph, W100%10000m1006hPa94%
17-Jun-2024 09:00Light Rain13°C7 mph, W78%10000m1007hPa84%
17-Jun-2024 12:00Light Rain14°C7 mph, NW89%10000m1008hPa78%
17-Jun-2024 15:00Light Rain15°C7 mph, N91%10000m1009hPa76%
17-Jun-2024 18:00Light Rain14°C9 mph, NW93%10000m1011hPa77%
17-Jun-2024 21:00Light Rain11°C7 mph, W97%10000m1013hPa86%
18-Jun-2024 00:00Overcast Clouds11°C7 mph, W98%10000m1015hPa83%
18-Jun-2024 03:00Overcast Clouds11°C7 mph, W100%10000m1015hPa86%
18-Jun-2024 06:00Overcast Clouds11°C7 mph, W100%10000m1017hPa81%
18-Jun-2024 09:00Broken Clouds13°C9 mph, NW78%10000m1018hPa60%
18-Jun-2024 12:00Overcast Clouds14°C9 mph, NW87%10000m1019hPa60%
18-Jun-2024 15:00Light Rain14°C9 mph, NE95%10000m1020hPa67%
18-Jun-2024 18:00Overcast Clouds12°C9 mph, NE96%10000m1021hPa71%
18-Jun-2024 21:00Broken Clouds9°C4 mph, E78%10000m1022hPa84%
19-Jun-2024 00:00Broken Clouds8°C2 mph, S80%10000m1022hPa88%
19-Jun-2024 03:00Broken Clouds7°C7 mph, SW81%10000m1020hPa91%
19-Jun-2024 06:00Overcast Clouds10°C11 mph, SW90%10000m1019hPa69%
19-Jun-2024 09:00Overcast Clouds14°C16 mph, SW98%10000m1018hPa64%
19-Jun-2024 12:00Overcast Clouds17°C18 mph, SW99%10000m1017hPa53%
19-Jun-2024 15:00Broken Clouds19°C18 mph, SW54%10000m1016hPa48%
19-Jun-2024 18:00Scattered Clouds17°C16 mph, SW35%10000m1016hPa52%
19-Jun-2024 21:00Few Clouds13°C13 mph, SW18%10000m1016hPa58%
20-Jun-2024 00:00Few Clouds11°C11 mph, SW22%10000m1016hPa70%
20-Jun-2024 03:00Broken Clouds10°C9 mph, SW68%10000m1015hPa74%
20-Jun-2024 06:00Broken Clouds12°C7 mph, SW64%10000m1015hPa70%
20-Jun-2024 09:00Broken Clouds17°C2 mph, NE56%10000m1013hPa53%
20-Jun-2024 12:00Broken Clouds16°C9 mph, NE70%10000m1012hPa58%
20-Jun-2024 15:00Overcast Clouds15°C11 mph, NE100%10000m1010hPa68%
20-Jun-2024 18:00Overcast Clouds16°C2 mph, NW100%10000m1009hPa74%
20-Jun-2024 21:00Light Rain13°C2 mph, SW100%10000m1009hPa93%